^^
Station Historical Data
 
Daily Summary for April 25, 2015 Units:  English    Metric   Both
« Previous Day
Next Day »
Daily Weekly Monthly Yearly Custom
  Current: High: Low: Average:
Temperature: 72.7 °F 72.7 °F 67.7 °F 69.1 °F
Dew Point: 69.3 °F 69.4 °F 65.6 °F 66.8 °F
Humidity: 89% 96% 86% 92%
Wind Speed: 2.0mph 2.0mph 0.0mph 0.2mph
Wind Gust: 6.0mph 6.0mph - -
WindSE - - ESE
Pressure: 29.90 in 29.96 in 29.87 in -
Precipitation: 0.00 in      
Historical Graphs
 
 
Tabular Data for April 25, 2015
Time Temperature Dew Point Pressure Wind Wind Speed Wind Gust Humidity Rainfall Rate (Hourly) solar Conditions
00:00 70.5 °F 66.1 °F 29.95 in Calm   1.0 mph 86% 0.00 in 0.0 W/m2 CLR
00:10 70.1 °F 66.1 °F 29.95 in Calm     87% 0.00 in 0.0 W/m2 CLR
00:20 69.7 °F 66.0 °F 29.95 in Calm   1.0 mph 88% 0.00 in 0.0 W/m2 CLR
00:30 69.7 °F 66.0 °F 29.95 in ENE 1.0 mph 2.0 mph 88% 0.00 in 0.0 W/m2 CLR
00:40 69.9 °F 66.2 °F 29.95 in Calm     88% 0.00 in 0.0 W/m2 CLR
00:50 69.5 °F 65.8 °F 29.96 in Calm     88% 0.00 in 0.0 W/m2 CLR
01:00 69.0 °F 65.6 °F 29.96 in Calm     89% 0.00 in 0.0 W/m2 CLR
01:10 69.0 °F 65.9 °F 29.95 in Calm     90% 0.00 in 0.0 W/m2 CLR
01:15 68.9 °F 65.9 °F 29.95 in Calm     90% 0.00 in 0.0 W/m2 CLR
01:20 68.9 °F 65.8 °F 29.95 in Calm     90% 0.00 in 0.0 W/m2 CLR
01:30 69.0 °F 66.3 °F 29.95 in Calm   1.0 mph 91% 0.00 in 0.0 W/m2 CLR
01:40 69.0 °F 66.3 °F 29.94 in Calm     91% 0.00 in 0.0 W/m2 CLR
01:50 69.1 °F 66.7 °F 29.94 in ENE 1.0 mph 1.0 mph 92% 0.00 in 0.0 W/m2 CLR
02:00 69.1 °F 66.3 °F 29.94 in Calm     91% 0.00 in 0.0 W/m2 CLR
02:10 68.8 °F 66.4 °F 29.94 in Calm     92% 0.00 in 0.0 W/m2 CLR
02:20 68.7 °F 66.3 °F 29.94 in Calm   1.0 mph 92% 0.00 in 0.0 W/m2 CLR
02:30 68.9 °F 66.5 °F 29.93 in Calm     92% 0.00 in 0.0 W/m2 CLR
02:40 68.8 °F 66.4 °F 29.92 in Calm   1.0 mph 92% 0.00 in 0.0 W/m2 CLR
02:50 68.9 °F 66.5 °F 29.91 in Calm   1.0 mph 92% 0.00 in 0.0 W/m2 CLR
03:00 68.9 °F 66.8 °F 29.91 in Calm   2.0 mph 93% 0.00 in 0.0 W/m2 CLR
03:10 69.0 °F 66.9 °F 29.91 in Calm   3.0 mph 93% 0.00 in 0.0 W/m2 CLR
03:20 69.1 °F 67.0 °F 29.90 in Calm   1.0 mph 93% 0.00 in 0.0 W/m2 CLR
03:30 69.2 °F 67.1 °F 29.90 in Calm   4.0 mph 93% 0.00 in 0.0 W/m2 CLR
03:40 69.6 °F 67.1 °F 29.91 in Calm   2.0 mph 92% 0.00 in 0.0 W/m2 CLR
03:50 69.5 °F 67.1 °F 29.90 in ENE 1.0 mph 1.0 mph 92% 0.00 in 0.0 W/m2 CLR
04:00 69.4 °F 67.0 °F 29.90 in Calm   1.0 mph 92% 0.00 in 0.0 W/m2 CLR
04:10 69.5 °F 67.4 °F 29.89 in SE 1.0 mph 4.0 mph 93% 0.00 in 0.0 W/m2 CLR
04:20 69.7 °F 67.6 °F 29.88 in SE 1.0 mph 6.0 mph 93% 0.00 in 0.0 W/m2 CLR
04:30 69.8 °F 67.7 °F 29.88 in Calm   4.0 mph 93% 0.00 in 0.0 W/m2 CLR
04:40 69.7 °F 67.5 °F 29.89 in Calm   1.0 mph 93% 0.00 in 0.0 W/m2 CLR
04:45 69.6 °F 67.5 °F 29.88 in SSE 1.0 mph 5.0 mph 93% 0.00 in 0.0 W/m2 CLR
04:50 69.5 °F 67.4 °F 29.88 in Calm   4.0 mph 93% 0.00 in 0.0 W/m2 CLR
05:00 69.2 °F 67.1 °F 29.87 in Calm   2.0 mph 93% 0.00 in 0.0 W/m2 CLR
05:10 68.9 °F 66.8 °F 29.88 in Calm   2.0 mph 93% 0.00 in 0.0 W/m2 CLR
05:20 68.7 °F 66.6 °F 29.88 in SSE 1.0 mph 2.0 mph 93% 0.00 in 0.0 W/m2 CLR
05:30 68.5 °F 66.7 °F 29.88 in Calm   1.0 mph 94% 0.00 in 0.0 W/m2 CLR
05:40 68.3 °F 66.5 °F 29.89 in Calm   1.0 mph 94% 0.00 in 0.0 W/m2 CLR
05:45 68.2 °F 66.4 °F 29.89 in Calm     94% 0.00 in 0.0 W/m2 CLR
05:50 68.1 °F 66.3 °F 29.89 in Calm   1.0 mph 94% 0.00 in 0.0 W/m2 CLR
06:00 67.9 °F 66.1 °F 29.89 in Calm     94% 0.00 in 0.0 W/m2 CLR
06:10 67.7 °F 65.9 °F 29.89 in Calm   1.0 mph 94% 0.00 in 0.0 W/m2 CLR
06:20 67.8 °F 66.3 °F 29.89 in Calm   1.0 mph 95% 0.00 in 0.0 W/m2 CLR
06:30 67.8 °F 66.3 °F 29.90 in Calm   1.0 mph 95% 0.00 in 0.0 W/m2 CLR
06:40 67.8 °F 66.3 °F 29.90 in Calm     95% 0.00 in 0.0 W/m2 CLR
06:50 67.7 °F 66.2 °F 29.90 in Calm     95% 0.00 in 0.0 W/m2 CLR
07:00 67.8 °F 66.3 °F 29.90 in Calm   1.0 mph 95% 0.00 in 0.0 W/m2 CLR
07:10 67.8 °F 66.6 °F 29.91 in Calm   1.0 mph 96% 0.00 in 0.0 W/m2 CLR
07:20 68.0 °F 66.8 °F 29.91 in SE 1.0 mph 2.0 mph 96% 0.00 in 0.0 W/m2 CLR
07:30 68.1 °F 66.9 °F 29.91 in Calm     96% 0.00 in 0.0 W/m2 CLR
07:40 68.7 °F 67.5 °F 29.91 in Calm   1.0 mph 96% 0.00 in 0.0 W/m2 CLR
07:50 69.7 °F 68.2 °F 29.90 in SSE 1.0 mph 5.0 mph 95% 0.00 in 0.0 W/m2 CLR
08:00 70.7 °F 68.9 °F 29.90 in Calm   2.0 mph 94% 0.00 in 0.0 W/m2 CLR
08:10 71.9 °F 69.4 °F 29.90 in Calm   4.0 mph 92% 0.00 in 0.0 W/m2 CLR
08:20 72.7 °F 69.3 °F 29.90 in SE 2.0 mph 6.0 mph 89% 0.00 in 0.0 W/m2 CLR
Lake Mary, FL, USA
Compliments of Weather Underground